createdAt,value
2018-05-16T00:00:31.062Z,15.80
2018-05-16T00:02:58.594Z,15.90
2018-05-16T00:05:26.892Z,15.90
2018-05-16T00:07:54.395Z,15.80
2018-05-16T00:10:21.897Z,15.90
2018-05-16T00:12:49.437Z,15.90
2018-05-16T00:15:16.998Z,16.00
2018-05-16T00:17:44.505Z,16.00
2018-05-16T00:20:13.540Z,16.00
2018-05-16T00:22:41.827Z,16.00
2018-05-16T00:25:10.153Z,16.00
2018-05-16T00:27:37.665Z,16.00
2018-05-16T00:30:05.173Z,16.00
2018-05-16T00:32:32.706Z,15.90
2018-05-16T00:35:00.990Z,15.80
2018-05-16T00:37:28.488Z,15.80
2018-05-16T00:39:56.791Z,15.70
2018-05-16T00:42:24.305Z,15.70
2018-05-16T00:44:51.805Z,15.70
2018-05-16T00:47:20.097Z,15.60
2018-05-16T00:49:48.363Z,15.60
2018-05-16T00:52:15.869Z,15.60
2018-05-16T00:54:43.394Z,15.60
2018-05-16T00:57:10.946Z,15.50
2018-05-16T00:59:38.453Z,15.50
2018-05-16T01:02:05.974Z,15.60
2018-05-16T01:04:33.481Z,15.50
2018-05-16T01:07:00.981Z,15.50
2018-05-16T01:09:29.271Z,15.50
2018-05-16T01:11:57.545Z,15.50
2018-05-16T01:14:25.045Z,15.40
2018-05-16T01:16:52.679Z,15.50
2018-05-16T01:19:20.180Z,15.50
2018-05-16T01:21:47.704Z,15.60
2018-05-16T01:24:15.261Z,15.70
2018-05-16T01:26:42.770Z,15.80
2018-05-16T01:29:10.301Z,15.80
2018-05-16T01:31:37.833Z,15.90
2018-05-16T01:34:05.337Z,15.90
2018-05-16T01:36:32.849Z,15.90
2018-05-16T01:39:00.385Z,15.90
2018-05-16T01:41:27.889Z,15.90
2018-05-16T01:43:55.397Z,15.90
2018-05-16T01:46:22.998Z,15.90
2018-05-16T01:52:00.493Z,15.60
2018-05-16T01:54:27.994Z,15.40
2018-05-16T01:56:55.525Z,15.30
2018-05-16T01:59:23.785Z,15.00
2018-05-16T02:01:51.306Z,15.00
2018-05-16T02:04:18.833Z,14.90
2018-05-16T02:06:46.357Z,14.80
2018-05-16T02:09:13.888Z,14.70
2018-05-16T02:11:42.157Z,14.60
2018-05-16T02:14:09.706Z,14.60
2018-05-16T02:16:37.248Z,14.60
2018-05-16T02:19:05.489Z,14.50
2018-05-16T02:21:33.038Z,14.50
2018-05-16T02:24:00.543Z,14.40
2018-05-16T02:26:28.809Z,14.40
2018-05-16T02:28:56.333Z,14.40
2018-05-16T02:31:23.837Z,14.30
2018-05-16T02:33:51.561Z,14.30
2018-05-16T02:36:19.825Z,14.40
2018-05-16T02:38:47.325Z,14.30
2018-05-16T02:41:14.845Z,14.30
2018-05-16T02:43:42.359Z,14.20
2018-05-16T02:46:10.678Z,14.20
2018-05-16T02:48:38.173Z,14.20
2018-05-16T02:51:05.673Z,14.30
2018-05-16T02:53:34.089Z,14.30
2018-05-16T02:56:01.605Z,14.20
2018-05-16T02:58:29.137Z,14.20
2018-05-16T03:00:56.638Z,14.20
2018-05-16T03:03:24.138Z,14.20
2018-05-16T03:05:51.666Z,14.10
2018-05-16T03:08:19.199Z,14.10
2018-05-16T03:10:46.977Z,14.10
2018-05-16T03:13:14.488Z,14.10
2018-05-16T03:15:41.996Z,14.00
2018-05-16T03:18:09.521Z,13.90
2018-05-16T03:20:37.193Z,13.90
2018-05-16T03:23:04.746Z,13.80
2018-05-16T03:25:32.253Z,13.70
2018-05-16T03:27:59.796Z,13.70
2018-05-16T03:30:27.321Z,13.70
2018-05-16T03:32:54.822Z,13.60
2018-05-16T03:35:22.366Z,13.60
2018-05-16T03:37:49.891Z,13.40
2018-05-16T03:40:17.423Z,13.40
2018-05-16T03:42:45.699Z,13.20
2018-05-16T03:45:13.965Z,13.10
2018-05-16T03:47:41.484Z,13.10
2018-05-16T03:50:09.010Z,13.10
2018-05-16T03:52:36.533Z,13.00
2018-05-16T03:55:04.106Z,13.00
2018-05-16T03:57:43.572Z,12.90
2018-05-16T04:00:22.941Z,12.90
2018-05-16T04:05:50.089Z,12.80
2018-05-16T04:08:17.613Z,12.80
2018-05-16T04:10:45.118Z,12.80
2018-05-16T04:13:13.413Z,12.70
2018-05-16T04:15:40.926Z,12.70
2018-05-16T04:18:08.425Z,12.70
2018-05-16T04:20:35.957Z,12.60
2018-05-16T04:23:03.473Z,12.60
2018-05-16T04:25:31.794Z,12.60
2018-05-16T04:27:59.318Z,12.60
2018-05-16T04:30:26.845Z,12.50
2018-05-16T04:32:54.369Z,12.50
2018-05-16T04:35:21.874Z,12.60
2018-05-16T04:37:49.414Z,12.60
2018-05-16T04:40:16.914Z,12.60
2018-05-16T04:42:44.420Z,12.60
2018-05-16T04:45:11.993Z,12.60
2018-05-16T04:47:39.509Z,12.60
2018-05-16T04:50:07.883Z,12.70
2018-05-16T04:52:35.385Z,12.60
2018-05-16T04:55:02.888Z,12.70
2018-05-16T04:57:30.404Z,12.70
2018-05-16T04:59:58.672Z,12.80
2018-05-16T05:02:26.192Z,12.80
2018-05-16T05:04:53.714Z,12.90
2018-05-16T05:07:21.218Z,12.90
2018-05-16T05:09:48.758Z,12.90
2018-05-16T05:12:16.262Z,13.00
2018-05-16T05:14:43.761Z,13.00
2018-05-16T05:17:11.282Z,13.10
2018-05-16T05:19:39.546Z,13.10
2018-05-16T05:22:07.070Z,13.20
2018-05-16T05:24:34.572Z,13.20
2018-05-16T05:27:02.095Z,13.20
2018-05-16T05:29:29.599Z,13.20
2018-05-16T05:31:57.143Z,13.20
2018-05-16T05:34:24.637Z,13.30
2018-05-16T05:36:52.176Z,13.40
2018-05-16T05:39:20.441Z,13.50
2018-05-16T05:41:47.941Z,13.50
2018-05-16T05:44:15.464Z,13.60
2018-05-16T05:46:42.965Z,13.70
2018-05-16T05:49:11.268Z,13.90
2018-05-16T05:51:38.785Z,13.80
2018-05-16T05:54:07.073Z,14.10
2018-05-16T05:56:34.590Z,14.00
2018-05-16T05:59:02.093Z,14.10
2018-05-16T06:01:29.617Z,14.20
2018-05-16T06:03:57.885Z,14.30
2018-05-16T06:06:25.390Z,14.30
2018-05-16T06:08:52.922Z,14.40
2018-05-16T06:11:20.418Z,14.50
2018-05-16T06:13:49.852Z,14.60
2018-05-16T06:16:17.356Z,14.50
2018-05-16T06:18:44.887Z,14.60
2018-05-16T06:21:12.389Z,14.70
2018-05-16T06:23:39.895Z,14.80
2018-05-16T06:26:07.422Z,14.80
2018-05-16T06:28:34.922Z,14.90
2018-05-16T06:31:02.445Z,15.00
2018-05-16T06:33:29.953Z,15.10
2018-05-16T06:35:57.479Z,15.30
2018-05-16T06:38:24.981Z,15.40
2018-05-16T06:40:52.509Z,15.50
2018-05-16T06:43:20.774Z,15.70
2018-05-16T06:45:48.280Z,15.70
2018-05-16T06:48:15.817Z,15.80
2018-05-16T06:50:43.317Z,15.80
2018-05-16T06:53:10.853Z,16.00
2018-05-16T06:55:38.357Z,16.10
2018-05-16T06:58:05.877Z,16.20
2018-05-16T07:00:33.383Z,16.30
2018-05-16T07:03:01.689Z,16.60
2018-05-16T07:05:29.194Z,16.60
2018-05-16T07:07:56.706Z,16.70
2018-05-16T07:10:24.994Z,16.80
2018-05-16T07:12:53.269Z,16.90
2018-05-16T07:15:20.893Z,16.90
2018-05-16T07:17:48.405Z,16.90
2018-05-16T07:20:15.930Z,17.00
2018-05-16T07:22:43.515Z,17.20
2018-05-16T07:25:10.993Z,17.20
2018-05-16T07:27:38.493Z,17.30
2018-05-16T07:30:05.989Z,17.40
2018-05-16T07:32:33.603Z,17.40
2018-05-16T07:35:01.026Z,17.60
2018-05-16T07:37:29.310Z,17.50
2018-05-16T07:39:57.577Z,17.60
2018-05-16T07:42:25.358Z,17.50
2018-05-16T07:44:52.860Z,17.70
2018-05-16T07:47:20.385Z,17.80
2018-05-16T07:49:47.886Z,17.90
2018-05-16T07:52:15.391Z,18.00
2018-05-16T07:54:42.913Z,18.20
2018-05-16T07:57:11.249Z,18.50
2018-05-16T07:59:38.790Z,18.40
2018-05-16T08:02:07.053Z,18.50
2018-05-16T08:04:34.577Z,18.50
2018-05-16T08:07:02.077Z,18.50
2018-05-16T08:09:29.621Z,18.50
2018-05-16T08:11:57.197Z,18.60
2018-05-16T08:14:24.705Z,18.70
2018-05-16T08:16:52.242Z,18.80
2018-05-16T08:19:19.746Z,18.90
2018-05-16T08:21:47.578Z,18.80
2018-05-16T08:24:15.973Z,19.10
2018-05-16T08:26:43.493Z,19.10
2018-05-16T08:29:11.762Z,19.40
2018-05-16T08:31:39.571Z,19.30
2018-05-16T08:34:07.838Z,19.50
2018-05-16T08:36:35.365Z,19.50
2018-05-16T08:39:02.896Z,19.60
2018-05-16T08:41:31.166Z,19.90
2018-05-16T08:43:58.733Z,19.90
2018-05-16T08:46:26.233Z,20.00
2018-05-16T08:48:54.688Z,20.10
2018-05-16T08:51:22.190Z,20.10
2018-05-16T08:53:49.722Z,20.10
2018-05-16T08:56:17.225Z,20.10
2018-05-16T08:58:45.493Z,20.40
2018-05-16T09:01:13.103Z,20.40
2018-05-16T09:03:40.533Z,20.50
2018-05-16T09:06:08.054Z,20.40
2018-05-16T09:08:35.554Z,20.50
2018-05-16T09:11:03.078Z,20.60
2018-05-16T09:13:30.573Z,20.60
2018-05-16T09:15:58.100Z,20.50
2018-05-16T09:18:26.369Z,20.50
2018-05-16T09:20:53.874Z,20.60
2018-05-16T09:23:22.157Z,20.20
2018-05-16T09:25:50.422Z,20.00
2018-05-16T09:28:17.941Z,20.00
2018-05-16T09:30:45.437Z,19.90
2018-05-16T09:33:12.962Z,19.80
2018-05-16T09:35:40.465Z,19.80
2018-05-16T09:38:07.965Z,19.90
2018-05-16T09:40:35.485Z,19.80
2018-05-16T09:43:02.986Z,19.90
2018-05-16T09:45:30.507Z,20.00
2018-05-16T09:47:58.014Z,20.10
2018-05-16T09:50:25.537Z,20.10
2018-05-16T09:52:53.811Z,20.30
2018-05-16T09:55:21.916Z,20.30
2018-05-16T09:57:50.185Z,20.10
2018-05-16T10:00:17.700Z,20.10
2018-05-16T10:02:45.300Z,20.00
2018-05-16T10:05:12.785Z,20.00
2018-05-16T10:07:40.305Z,19.90
2018-05-16T10:10:07.804Z,20.00
2018-05-16T10:12:35.330Z,20.00
2018-05-16T10:15:03.645Z,19.80
2018-05-16T10:17:31.201Z,19.80
2018-05-16T10:19:58.704Z,19.70
2018-05-16T10:22:26.206Z,19.60
2018-05-16T10:24:53.729Z,19.40
2018-05-16T10:27:21.233Z,19.30
2018-05-16T10:29:48.754Z,19.10
2018-05-16T10:32:16.258Z,19.00
2018-05-16T10:34:43.781Z,19.00
2018-05-16T10:37:12.045Z,19.10
2018-05-16T10:39:39.573Z,19.10
2018-05-16T10:42:07.066Z,19.20
2018-05-16T10:44:34.565Z,19.20
2018-05-16T10:47:02.854Z,19.20
2018-05-16T10:49:31.158Z,19.10
2018-05-16T10:51:58.678Z,19.00
2018-05-16T10:54:26.186Z,19.00
2018-05-16T10:56:54.481Z,19.10
2018-05-16T10:59:22.758Z,19.20
2018-05-16T11:01:51.053Z,19.30
2018-05-16T11:04:19.321Z,19.40
2018-05-16T11:06:46.822Z,19.40
2018-05-16T11:09:14.366Z,19.70
2018-05-16T11:11:41.869Z,20.00
2018-05-16T11:14:09.393Z,20.50
2018-05-16T11:16:36.896Z,21.00
2018-05-16T11:19:05.185Z,21.50
2018-05-16T11:21:33.449Z,21.80
2018-05-16T11:24:00.977Z,21.70
2018-05-16T11:26:28.477Z,21.80
2018-05-16T11:28:55.986Z,21.90
2018-05-16T11:31:23.514Z,21.80
2018-05-16T11:33:51.018Z,21.80
2018-05-16T11:36:19.309Z,21.30
2018-05-16T11:38:47.578Z,21.20
2018-05-16T11:41:15.097Z,21.20
2018-05-16T11:43:42.605Z,21.10
2018-05-16T11:46:10.139Z,21.00
2018-05-16T11:48:37.649Z,21.10
2018-05-16T11:51:05.153Z,21.10
2018-05-16T11:53:33.441Z,21.50
2018-05-16T11:56:01.054Z,21.50
2018-05-16T11:58:28.573Z,21.80
2018-05-16T12:00:56.849Z,22.10
2018-05-16T12:03:24.373Z,22.10
2018-05-16T12:05:51.880Z,22.20
2018-05-16T12:08:19.384Z,22.30
2018-05-16T12:10:46.916Z,22.40
2018-05-16T12:13:14.413Z,22.10
2018-05-16T12:15:42.697Z,21.90
2018-05-16T12:18:10.967Z,21.80
2018-05-16T12:20:38.490Z,21.70
2018-05-16T12:23:05.990Z,21.70
2018-05-16T12:25:33.490Z,21.60
2018-05-16T12:28:01.778Z,21.20
2018-05-16T12:30:30.046Z,21.20
2018-05-16T12:32:57.577Z,21.10
2018-05-16T12:35:25.078Z,21.30
2018-05-16T12:37:52.599Z,21.30
2018-05-16T12:40:20.102Z,21.30
2018-05-16T12:43:29.309Z,21.30
2018-05-16T12:45:57.145Z,21.20
2018-05-16T12:48:24.682Z,21.10
2018-05-16T12:50:52.373Z,21.00
2018-05-16T12:53:19.914Z,20.80
2018-05-16T12:55:47.493Z,20.50
2018-05-16T12:58:14.933Z,20.30
2018-05-16T13:00:43.222Z,19.70
2018-05-16T13:03:11.486Z,19.50
2018-05-16T13:05:39.005Z,19.40
2018-05-16T13:08:06.505Z,19.20
2018-05-16T13:10:34.030Z,19.10
2018-05-16T13:13:02.340Z,19.00
2018-05-16T13:15:30.618Z,18.90
2018-05-16T13:17:58.121Z,18.90
2018-05-16T13:20:25.642Z,18.80
2018-05-16T13:22:53.930Z,18.60
2018-05-16T13:25:22.836Z,18.40
2018-05-16T13:27:51.131Z,18.30
2018-05-16T13:30:18.628Z,18.30
2018-05-16T13:32:46.145Z,18.20
2018-05-16T13:35:13.658Z,18.20
2018-05-16T13:37:41.187Z,18.10
2018-05-16T13:40:08.686Z,18.00
2018-05-16T13:42:36.186Z,18.00
2018-05-16T13:45:03.713Z,18.00
2018-05-16T13:47:31.981Z,18.10
2018-05-16T13:49:59.502Z,18.10
2018-05-16T13:52:27.011Z,18.30
2018-05-16T13:54:54.529Z,18.40
2018-05-16T13:57:22.029Z,18.50
2018-05-16T13:59:49.817Z,18.50
2018-05-16T14:02:17.317Z,18.50
2018-05-16T14:04:45.585Z,18.50
2018-05-16T14:07:13.114Z,18.50
2018-05-16T14:09:40.613Z,18.50
2018-05-16T14:12:08.137Z,18.50
2018-05-16T14:14:35.650Z,18.50
2018-05-16T14:17:03.178Z,18.50
2018-05-16T14:19:30.673Z,18.40
2018-05-16T14:21:58.173Z,18.40
2018-05-16T14:24:25.693Z,18.30
2018-05-16T14:26:53.193Z,18.30
2018-05-16T14:29:20.718Z,18.30
2018-05-16T14:31:48.233Z,18.20
2018-05-16T14:34:15.757Z,18.30
2018-05-16T14:36:44.025Z,18.70
2018-05-16T14:39:11.532Z,18.70
2018-05-16T14:41:39.054Z,18.90
2018-05-16T14:44:07.704Z,18.90
2018-05-16T14:46:35.234Z,19.00
2018-05-16T14:49:02.734Z,19.20
2018-05-16T14:51:30.264Z,19.30
2018-05-16T14:53:57.761Z,19.40
2018-05-16T14:56:26.054Z,19.70
2018-05-16T14:58:54.318Z,20.30
2018-05-16T15:01:21.817Z,20.30
2018-05-16T15:03:49.342Z,20.70
2018-05-16T15:06:16.849Z,20.90
2018-05-16T15:08:45.137Z,21.40
2018-05-16T15:11:13.405Z,21.60
2018-05-16T15:13:40.926Z,21.50
2018-05-16T15:16:08.430Z,21.60
2018-05-16T15:18:35.973Z,21.50
2018-05-16T15:21:03.469Z,21.60
2018-05-16T15:23:30.969Z,21.60
2018-05-16T15:25:58.489Z,21.50
2018-05-16T15:28:25.997Z,21.30
2018-05-16T15:30:53.533Z,21.40
2018-05-16T15:33:21.042Z,21.40
2018-05-16T15:35:48.600Z,21.10
2018-05-16T15:38:16.142Z,21.10
2018-05-16T15:40:43.633Z,21.00
2018-05-16T15:43:11.170Z,20.80
2018-05-16T15:45:38.670Z,20.60
2018-05-16T15:48:06.213Z,20.40
2018-05-16T15:50:33.718Z,20.30
2018-05-16T15:53:01.238Z,20.20
2018-05-16T15:55:28.748Z,20.00
2018-05-16T15:57:56.290Z,19.90
2018-05-16T16:00:23.794Z,19.70
2018-05-16T16:02:51.299Z,19.70
2018-05-16T16:05:19.589Z,19.40
2018-05-16T16:07:47.860Z,19.30
2018-05-16T16:10:15.384Z,19.30
2018-05-16T16:12:42.887Z,19.30
2018-05-16T16:15:10.410Z,19.20
2018-05-16T16:17:37.922Z,19.20
2018-05-16T16:20:05.446Z,19.10
2018-05-16T16:22:33.326Z,19.00
2018-05-16T16:25:00.830Z,18.90
2018-05-16T16:27:28.349Z,19.00
2018-05-16T16:29:56.628Z,18.80
2018-05-16T16:32:24.917Z,18.80
2018-05-16T16:34:53.185Z,18.70
2018-05-16T16:37:20.709Z,18.60
2018-05-16T16:39:48.208Z,18.60
2018-05-16T16:42:15.709Z,18.60
2018-05-16T16:44:44.040Z,18.60
2018-05-16T16:47:11.525Z,18.60
2018-05-16T16:49:39.045Z,18.60
2018-05-16T16:52:12.041Z,18.40
2018-05-16T16:57:32.130Z,18.30
2018-05-16T17:02:50.909Z,18.20
2018-05-16T17:10:59.919Z,16.70
2018-05-16T17:19:08.666Z,14.90
2018-05-16T17:21:37.721Z,14.50
2018-05-16T17:24:05.225Z,14.40
2018-05-16T17:26:32.754Z,14.30
2018-05-16T17:29:00.256Z,14.10
2018-05-16T17:31:27.759Z,14.00
2018-05-16T17:33:56.074Z,13.70
2018-05-16T17:36:23.713Z,13.70
2018-05-16T17:38:51.237Z,13.70
2018-05-16T17:41:18.741Z,13.60
2018-05-16T17:43:47.534Z,13.60
2018-05-16T17:46:15.035Z,13.60
2018-05-16T17:48:43.345Z,13.50
2018-05-16T17:51:11.026Z,13.50
2018-05-16T17:53:38.570Z,13.50
2018-05-16T17:56:06.857Z,13.50
2018-05-16T17:58:35.122Z,13.50
2018-05-16T18:01:02.647Z,13.50
2018-05-16T18:03:30.153Z,13.50
2018-05-16T18:05:57.653Z,13.60
2018-05-16T18:08:27.809Z,13.60
2018-05-16T18:10:55.921Z,13.60
2018-05-16T18:16:46.191Z,13.60
2018-05-16T18:19:13.716Z,13.70
2018-05-16T18:21:41.217Z,13.70
2018-05-16T18:24:08.749Z,13.60
2018-05-16T18:26:36.257Z,13.70
2018-05-16T18:29:04.039Z,13.70
2018-05-16T18:31:31.561Z,13.70
2018-05-16T18:33:59.061Z,13.70
2018-05-16T18:36:26.584Z,13.80
2018-05-16T18:38:54.861Z,13.80
2018-05-16T18:41:23.165Z,13.90
2018-05-16T18:43:51.446Z,13.90
2018-05-16T18:46:19.728Z,14.00
2018-05-16T18:48:48.025Z,14.00
2018-05-16T18:51:16.294Z,14.00
2018-05-16T18:53:43.821Z,14.00
2018-05-16T18:56:11.324Z,14.00
2018-05-16T18:58:38.858Z,14.00
2018-05-16T19:01:06.375Z,14.00
2018-05-16T19:03:33.884Z,14.00
2018-05-16T19:06:01.422Z,14.00
2018-05-16T19:08:29.695Z,14.00
2018-05-16T19:10:57.226Z,13.90
2018-05-16T19:13:24.725Z,14.00
2018-05-16T19:15:52.545Z,13.90
2018-05-16T19:18:20.810Z,14.00
2018-05-16T19:20:48.313Z,14.00
2018-05-16T19:23:15.836Z,14.00
2018-05-16T19:25:43.341Z,13.90
2018-05-16T19:28:11.635Z,13.90
2018-05-16T19:30:39.132Z,13.90
2018-05-16T19:33:06.697Z,14.00
2018-05-16T19:35:34.204Z,13.90
2018-05-16T19:38:01.713Z,13.90
2018-05-16T19:40:30.083Z,13.90
2018-05-16T19:42:57.526Z,13.90
2018-05-16T19:45:25.058Z,13.80
2018-05-16T19:47:52.568Z,13.90
2018-05-16T19:50:20.097Z,13.90
2018-05-16T19:52:47.603Z,13.90
2018-05-16T19:55:15.111Z,13.90
2018-05-16T19:57:43.397Z,13.90
2018-05-16T20:00:12.831Z,13.90
2018-05-16T20:02:40.359Z,13.90
2018-05-16T20:05:07.860Z,13.90
2018-05-16T20:07:36.178Z,13.80
2018-05-16T20:10:03.678Z,13.80
2018-05-16T20:12:31.177Z,13.80
2018-05-16T20:14:59.465Z,13.80
2018-05-16T20:17:27.745Z,13.80
2018-05-16T20:19:55.270Z,13.80
2018-05-16T20:22:22.784Z,13.70
2018-05-16T20:24:50.309Z,13.70
2018-05-16T20:27:17.809Z,13.70
2018-05-16T20:29:45.310Z,13.70
2018-05-16T20:32:13.601Z,13.70
2018-05-16T20:34:41.866Z,13.70
2018-05-16T20:37:09.397Z,13.70
2018-05-16T20:39:40.464Z,13.70
2018-05-16T20:42:08.001Z,13.70
2018-05-16T20:44:35.513Z,13.70
2018-05-16T20:47:03.009Z,13.70
2018-05-16T20:49:30.537Z,13.70
2018-05-16T20:51:58.049Z,13.60
2018-05-16T20:54:25.582Z,13.60
2018-05-16T20:56:53.077Z,13.60
2018-05-16T20:59:20.625Z,13.50
2018-05-16T21:01:48.125Z,13.50
2018-05-16T21:04:15.626Z,13.50
2018-05-16T21:06:43.145Z,13.50
2018-05-16T21:09:10.645Z,13.60
2018-05-16T21:11:38.167Z,13.60
2018-05-16T21:14:05.665Z,13.50
2018-05-16T21:16:33.201Z,13.50
2018-05-16T21:19:00.706Z,13.50
2018-05-16T21:21:28.206Z,13.40
2018-05-16T21:23:56.497Z,13.30
2018-05-16T21:26:24.765Z,13.30
2018-05-16T21:28:52.289Z,13.20
2018-05-16T21:31:19.790Z,13.20
2018-05-16T21:33:47.333Z,13.20
2018-05-16T21:36:14.833Z,13.10
2018-05-16T21:38:42.337Z,13.10
2018-05-16T21:41:10.629Z,13.00
2018-05-16T21:43:38.153Z,13.00
2018-05-16T21:46:05.676Z,12.90
2018-05-16T21:48:33.181Z,12.90
2018-05-16T21:51:00.705Z,12.90
2018-05-16T21:53:28.970Z,12.90
2018-05-16T21:55:56.475Z,12.80
2018-05-16T21:58:24.000Z,12.80
2018-05-16T22:00:51.505Z,12.80
2018-05-16T22:03:19.797Z,12.70
2018-05-16T22:05:47.317Z,12.60
2018-05-16T22:08:14.837Z,12.70
2018-05-16T22:10:43.124Z,12.70
2018-05-16T22:13:11.394Z,12.60
2018-05-16T22:15:39.685Z,12.60
2018-05-16T22:18:07.959Z,12.50
2018-05-16T22:20:35.489Z,12.50
2018-05-16T22:23:02.989Z,12.50
2018-05-16T22:25:30.513Z,12.50
2018-05-16T22:27:58.017Z,12.40
2018-05-16T22:30:31.161Z,12.40
2018-05-16T22:33:05.029Z,12.40
2018-05-16T22:35:38.145Z,12.40
2018-05-16T22:38:11.339Z,12.30
2018-05-16T22:40:44.474Z,12.20
2018-05-16T22:43:12.985Z,12.10
2018-05-16T22:45:56.925Z,12.00
2018-05-16T22:48:24.429Z,12.00
2018-05-16T22:50:51.935Z,11.90
2018-05-16T22:53:19.461Z,12.00
2018-05-16T22:55:46.963Z,11.90
2018-05-16T22:58:14.481Z,11.90
2018-05-16T23:00:41.984Z,11.90
2018-05-16T23:03:09.513Z,11.90
2018-05-16T23:05:37.018Z,11.80
2018-05-16T23:08:04.522Z,11.80
2018-05-16T23:10:32.045Z,11.80
2018-05-16T23:13:00.310Z,11.70
2018-05-16T23:15:27.836Z,11.70
2018-05-16T23:17:55.337Z,11.70
2018-05-16T23:20:22.877Z,11.70
2018-05-16T23:22:50.405Z,11.60
2018-05-16T23:25:18.669Z,11.60
2018-05-16T23:27:46.185Z,11.60
2018-05-16T23:30:13.681Z,11.50
2018-05-16T23:32:41.201Z,11.50
2018-05-16T23:35:08.705Z,11.50
2018-05-16T23:37:36.233Z,11.40
2018-05-16T23:40:03.735Z,11.40
2018-05-16T23:42:31.241Z,11.40
2018-05-16T23:44:58.765Z,11.40
2018-05-16T23:47:27.035Z,11.40
2018-05-16T23:49:54.558Z,11.40
2018-05-16T23:52:22.057Z,11.40
2018-05-16T23:54:49.589Z,11.30
2018-05-16T23:57:17.093Z,11.30
2018-05-16T23:59:44.595Z,11.40
